createdAt,value
2023-03-06T00:00:53.014Z,-4.28
2023-03-06T00:03:20.719Z,-4.25
2023-03-06T00:05:47.831Z,-4.26
2023-03-06T00:08:15.274Z,-4.26
2023-03-06T00:10:42.366Z,-4.28
2023-03-06T00:13:12.674Z,-4.33
2023-03-06T00:15:40.101Z,-4.30
2023-03-06T00:18:07.857Z,-4.44
2023-03-06T00:20:35.909Z,-4.46
2023-03-06T00:23:03.184Z,-4.59
2023-03-06T00:25:30.379Z,-4.45
2023-03-06T00:27:57.593Z,-4.70
2023-03-06T00:30:25.573Z,-4.52
2023-03-06T00:32:54.638Z,-4.73
2023-03-06T00:35:21.822Z,-4.55
2023-03-06T00:37:49.195Z,-4.57
2023-03-06T00:40:20.672Z,-4.58
2023-03-06T00:42:48.129Z,-4.65
2023-03-06T00:45:15.649Z,-4.88
2023-03-06T00:47:42.970Z,-4.87
2023-03-06T00:50:10.775Z,-4.70
2023-03-06T00:52:37.975Z,-4.88
2023-03-06T00:55:06.060Z,-4.86
2023-03-06T00:57:33.247Z,-4.99
2023-03-06T01:00:00.254Z,-4.94
2023-03-06T01:02:27.413Z,-4.86
2023-03-06T01:04:55.125Z,-5.07
2023-03-06T01:07:22.385Z,-5.01
2023-03-06T01:09:50.741Z,-5.20
2023-03-06T01:12:17.724Z,-5.15
2023-03-06T01:14:44.784Z,-4.99
2023-03-06T01:17:11.845Z,-5.08
2023-03-06T01:19:39.021Z,-4.96
2023-03-06T01:22:06.024Z,-4.94
2023-03-06T01:24:33.036Z,-4.99
2023-03-06T01:27:00.116Z,-5.13
2023-03-06T01:29:27.255Z,-4.98
2023-03-06T01:31:54.310Z,-4.95
2023-03-06T01:34:21.551Z,-5.03
2023-03-06T01:36:48.745Z,-5.13
2023-03-06T01:39:16.073Z,-5.06
2023-03-06T01:41:43.269Z,-5.10
2023-03-06T01:44:16.601Z,-5.12
2023-03-06T01:46:45.029Z,-5.20
2023-03-06T01:49:23.057Z,-5.16
2023-03-06T01:52:01.949Z,-5.16
2023-03-06T01:54:32.954Z,-5.40
2023-03-06T01:57:12.231Z,-5.10
2023-03-06T01:59:42.570Z,-5.28
2023-03-06T02:02:12.248Z,-5.12
2023-03-06T02:04:41.285Z,-5.18
2023-03-06T02:07:09.376Z,-5.08
2023-03-06T02:09:38.140Z,-5.05
2023-03-06T02:12:11.340Z,-5.06
2023-03-06T02:14:39.424Z,-5.26
2023-03-06T02:17:08.865Z,-5.49
2023-03-06T02:20:09.904Z,-5.12
2023-03-06T02:22:46.186Z,-5.27
2023-03-06T02:25:28.619Z,-5.07
2023-03-06T02:27:56.698Z,-5.07
2023-03-06T02:30:26.881Z,-5.05
2023-03-06T02:32:54.676Z,-5.07
2023-03-06T02:35:27.495Z,-5.07
2023-03-06T02:37:57.588Z,-5.09
2023-03-06T02:40:25.874Z,-5.32
2023-03-06T02:42:56.942Z,-5.02
2023-03-06T02:45:48.758Z,-5.01
2023-03-06T02:48:17.308Z,-5.01
2023-03-06T02:50:46.399Z,-4.96
2023-03-06T02:53:15.664Z,-4.96
2023-03-06T02:55:42.923Z,-4.95
2023-03-06T02:58:10.786Z,-5.02
2023-03-06T03:00:40.119Z,-5.08
2023-03-06T03:03:09.406Z,-4.92
2023-03-06T03:05:36.485Z,-4.96
2023-03-06T03:08:13.675Z,-5.13
2023-03-06T03:10:40.758Z,-5.05
2023-03-06T03:13:07.909Z,-5.02
2023-03-06T03:15:35.714Z,-5.35
2023-03-06T03:18:03.606Z,-5.10
2023-03-06T03:20:31.713Z,-4.86
2023-03-06T03:22:59.038Z,-4.85
2023-03-06T03:25:27.925Z,-4.87
2023-03-06T03:27:57.670Z,-4.83
2023-03-06T03:30:25.681Z,-4.89
2023-03-06T03:32:52.890Z,-4.79
2023-03-06T03:35:20.037Z,-4.99
2023-03-06T03:37:47.568Z,-4.83
2023-03-06T03:40:15.146Z,-4.89
2023-03-06T03:42:42.295Z,-4.74
2023-03-06T03:45:10.927Z,-4.84
2023-03-06T03:47:38.140Z,-4.69
2023-03-06T03:50:06.690Z,-4.76
2023-03-06T03:52:33.730Z,-4.87
2023-03-06T03:55:00.876Z,-4.63
2023-03-06T03:57:30.590Z,-4.78
2023-03-06T03:59:58.794Z,-4.73
2023-03-06T04:02:40.790Z,-4.59
2023-03-06T04:05:20.210Z,-4.72
2023-03-06T04:07:48.579Z,-4.57
2023-03-06T04:10:16.265Z,-4.56
2023-03-06T04:12:43.912Z,-4.54
2023-03-06T04:15:12.161Z,-4.55
2023-03-06T04:17:40.225Z,-4.53
2023-03-06T04:20:12.290Z,-4.67
2023-03-06T04:22:39.646Z,-4.48
2023-03-06T04:25:07.267Z,-4.46
2023-03-06T04:27:36.253Z,-4.48
2023-03-06T04:30:05.477Z,-4.49
2023-03-06T04:32:33.300Z,-4.40
2023-03-06T04:35:02.656Z,-4.34
2023-03-06T04:37:35.322Z,-4.43
2023-03-06T04:40:02.627Z,-4.48
2023-03-06T04:42:30.500Z,-4.39
2023-03-06T04:44:57.627Z,-4.46
2023-03-06T04:47:25.393Z,-4.42
2023-03-06T04:49:52.699Z,-4.46
2023-03-06T04:52:19.632Z,-4.34
2023-03-06T04:54:46.638Z,-4.44
2023-03-06T04:57:14.310Z,-4.26
2023-03-06T04:59:41.348Z,-4.46
2023-03-06T05:02:08.605Z,-4.33
2023-03-06T05:04:35.658Z,-4.23
2023-03-06T05:07:02.686Z,-4.33
2023-03-06T05:09:29.678Z,-4.17
2023-03-06T05:11:56.702Z,-4.31
2023-03-06T05:14:23.784Z,-4.22
2023-03-06T05:16:50.945Z,-4.11
2023-03-06T05:19:18.127Z,-4.21
2023-03-06T05:21:45.392Z,-4.09
2023-03-06T05:24:12.567Z,-4.27
2023-03-06T05:26:39.610Z,-4.07
2023-03-06T05:29:07.000Z,-4.16
2023-03-06T05:31:34.034Z,-4.00
2023-03-06T05:34:01.189Z,-4.07
2023-03-06T05:36:28.204Z,-4.05
2023-03-06T05:38:55.222Z,-4.02
2023-03-06T05:41:22.275Z,-3.98
2023-03-06T05:43:49.484Z,-4.07
2023-03-06T05:46:16.604Z,-4.13
2023-03-06T05:48:45.311Z,-3.98
2023-03-06T05:51:13.710Z,-3.99
2023-03-06T05:53:40.858Z,-3.84
2023-03-06T05:56:11.344Z,-3.85
2023-03-06T05:58:39.145Z,-3.83
2023-03-06T06:01:16.582Z,-3.79
2023-03-06T06:03:44.878Z,-4.13
2023-03-06T06:06:14.554Z,-3.77
2023-03-06T06:08:42.392Z,-3.95
2023-03-06T06:11:11.710Z,-3.69
2023-03-06T06:13:39.580Z,-3.96
2023-03-06T06:16:11.818Z,-3.56
2023-03-06T06:18:41.108Z,-3.57
2023-03-06T06:21:10.642Z,-3.56
2023-03-06T06:23:37.861Z,-3.68
2023-03-06T06:26:07.360Z,-3.84
2023-03-06T06:28:34.515Z,-3.50
2023-03-06T06:31:07.125Z,-3.62
2023-03-06T06:33:34.207Z,-3.63
2023-03-06T06:36:01.321Z,-3.51
2023-03-06T06:38:28.365Z,-3.47
2023-03-06T06:41:29.156Z,-3.41
2023-03-06T06:43:42.875Z,-3.65
2023-03-06T06:46:32.337Z,-3.74
2023-03-06T06:48:56.955Z,-3.37
2023-03-06T06:51:24.599Z,-3.80
2023-03-06T06:53:55.656Z,-3.60
2023-03-06T06:56:28.695Z,-3.57
2023-03-06T06:59:15.710Z,-3.82
2023-03-06T07:01:42.946Z,-3.28
2023-03-06T07:04:15.201Z,-3.15
2023-03-06T07:06:42.942Z,-3.22
2023-03-06T07:09:10.138Z,-3.09
2023-03-06T07:11:38.589Z,-3.24
2023-03-06T07:14:06.154Z,-3.03
2023-03-06T07:16:33.455Z,-3.23
2023-03-06T07:19:00.682Z,-3.29
2023-03-06T07:21:27.988Z,-3.04
2023-03-06T07:23:57.631Z,-3.18
2023-03-06T07:26:26.218Z,-2.89
2023-03-06T07:28:57.554Z,-2.78
2023-03-06T07:31:27.429Z,-2.57
2023-03-06T07:33:55.269Z,-2.92
2023-03-06T07:36:23.913Z,-2.76
2023-03-06T07:38:50.927Z,-2.66
2023-03-06T07:41:21.876Z,-2.71
2023-03-06T07:43:50.382Z,-2.41
2023-03-06T07:46:17.803Z,-2.51
2023-03-06T07:48:44.938Z,-2.62
2023-03-06T07:51:21.449Z,-2.23
2023-03-06T07:53:49.538Z,-2.37
2023-03-06T07:56:16.721Z,-2.28
2023-03-06T07:58:46.250Z,-2.16
2023-03-06T08:01:19.891Z,-2.17
2023-03-06T08:03:50.228Z,-2.36
2023-03-06T08:06:23.063Z,-2.39
2023-03-06T08:08:51.839Z,-2.38
2023-03-06T08:11:21.672Z,-2.50
2023-03-06T08:13:49.233Z,-2.50
2023-03-06T08:16:17.646Z,-2.44
2023-03-06T08:18:46.333Z,-2.55
2023-03-06T08:21:16.166Z,-2.58
2023-03-06T08:23:44.054Z,-2.43
2023-03-06T08:26:33.050Z,-2.47
2023-03-06T08:29:01.998Z,-2.70
2023-03-06T08:31:33.785Z,-2.56
2023-03-06T08:34:04.264Z,-2.62
2023-03-06T08:36:31.584Z,-2.81
2023-03-06T08:38:58.886Z,-2.48
2023-03-06T08:41:26.398Z,-2.74
2023-03-06T08:43:53.422Z,-2.65
2023-03-06T08:46:23.682Z,-2.46
2023-03-06T08:48:50.972Z,-2.36
2023-03-06T08:51:18.571Z,-2.32
2023-03-06T08:53:46.292Z,-2.26
2023-03-06T08:56:39.684Z,-2.17
2023-03-06T08:59:07.181Z,-2.28
2023-03-06T09:01:36.843Z,-2.29
2023-03-06T09:04:07.675Z,-2.28
2023-03-06T09:06:39.027Z,-2.37
2023-03-06T09:09:07.322Z,-2.31
2023-03-06T09:11:34.599Z,-2.43
2023-03-06T09:14:01.744Z,-2.49
2023-03-06T09:16:28.823Z,-2.18
2023-03-06T09:18:55.898Z,-2.27
2023-03-06T09:21:23.495Z,-1.81
2023-03-06T09:23:50.888Z,-1.89
2023-03-06T09:26:18.748Z,-1.59
2023-03-06T09:28:46.888Z,-1.60
2023-03-06T09:31:19.806Z,-1.26
2023-03-06T09:33:47.627Z,-1.44
2023-03-06T09:36:18.596Z,-1.43
2023-03-06T09:38:48.009Z,-1.65
2023-03-06T09:41:40.513Z,-1.97
2023-03-06T09:44:14.618Z,-1.93
2023-03-06T09:46:44.669Z,-1.90
2023-03-06T09:49:30.503Z,-1.74
2023-03-06T09:52:51.896Z,-1.51
2023-03-06T09:55:21.644Z,-1.70
2023-03-06T09:57:58.819Z,-1.62
2023-03-06T10:00:32.690Z,-1.59
2023-03-06T10:03:27.622Z,-1.56
2023-03-06T10:06:12.976Z,-1.86
2023-03-06T10:08:55.593Z,-1.85
2023-03-06T10:11:28.098Z,-1.90
2023-03-06T10:14:14.243Z,-1.86
2023-03-06T10:16:41.639Z,-1.78
2023-03-06T10:19:19.946Z,-2.62
2023-03-06T10:22:14.247Z,-1.80
2023-03-06T10:24:58.095Z,-1.91
2023-03-06T10:27:37.769Z,-1.89
2023-03-06T10:30:29.483Z,-1.75
2023-03-06T10:33:18.091Z,-1.77
2023-03-06T10:35:51.716Z,-1.88
2023-03-06T10:38:20.356Z,-1.94
2023-03-06T10:41:19.983Z,-2.01
2023-03-06T10:44:05.218Z,-1.93
2023-03-06T10:46:44.381Z,-2.00
2023-03-06T10:49:14.433Z,-1.99
2023-03-06T10:51:57.007Z,-2.22
2023-03-06T10:54:24.584Z,-2.01
2023-03-06T10:56:51.814Z,-2.03
2023-03-06T10:59:20.255Z,-1.94
2023-03-06T11:01:50.653Z,-2.05
2023-03-06T11:04:33.606Z,-2.08
2023-03-06T11:07:21.048Z,-1.85
2023-03-06T11:09:57.395Z,-1.76
2023-03-06T11:12:36.712Z,-1.77
2023-03-06T11:15:18.500Z,-1.85
2023-03-06T11:17:51.289Z,-1.94
2023-03-06T11:20:23.377Z,-2.14
2023-03-06T11:22:56.713Z,-2.35
2023-03-06T11:25:30.892Z,-2.55
2023-03-06T11:28:08.642Z,-2.42
2023-03-06T11:30:43.198Z,-2.73
2023-03-06T11:33:35.436Z,-2.70
2023-03-06T11:36:23.443Z,-2.55
2023-03-06T11:38:53.727Z,-2.59
2023-03-06T11:41:39.533Z,-2.14
2023-03-06T11:44:21.173Z,-1.96
2023-03-06T11:46:54.059Z,-2.10
2023-03-06T11:49:47.339Z,-1.89
2023-03-06T11:52:31.108Z,-1.63
2023-03-06T11:54:58.343Z,-1.32
2023-03-06T11:57:39.943Z,-0.95
2023-03-06T12:00:17.267Z,-0.88
2023-03-06T12:03:03.389Z,-0.90
2023-03-06T12:05:59.600Z,-1.16
2023-03-06T12:08:48.719Z,-1.35
2023-03-06T12:11:23.322Z,-1.47
2023-03-06T12:14:28.697Z,-1.69
2023-03-06T12:17:05.848Z,-1.49
2023-03-06T12:19:52.260Z,-1.65
2023-03-06T12:22:29.138Z,-1.46
2023-03-06T12:25:04.204Z,-1.39
2023-03-06T12:27:54.350Z,-1.36
2023-03-06T12:30:39.528Z,-1.43
2023-03-06T12:33:24.645Z,-1.17
2023-03-06T12:36:13.018Z,-0.73
2023-03-06T12:39:04.605Z,-0.67
2023-03-06T12:42:11.444Z,-0.93
2023-03-06T12:44:47.833Z,-1.07
2023-03-06T12:47:20.306Z,-0.76
2023-03-06T12:50:04.180Z,-0.87
2023-03-06T12:52:34.134Z,-1.27
2023-03-06T12:55:07.088Z,-1.37
2023-03-06T12:57:34.163Z,-1.56
2023-03-06T13:00:01.243Z,-1.88
2023-03-06T13:02:37.249Z,-1.75
2023-03-06T13:05:38.056Z,-1.82
2023-03-06T13:08:20.662Z,-1.92
2023-03-06T13:11:21.962Z,-1.95
2023-03-06T13:13:49.669Z,-2.23
2023-03-06T13:16:40.596Z,-2.30
2023-03-06T13:22:33.536Z,-2.43
2023-03-06T13:28:59.016Z,-2.68
2023-03-06T13:31:36.352Z,-2.71
2023-03-06T13:34:33.633Z,-2.83
2023-03-06T13:43:27.879Z,-3.18
2023-03-06T13:46:27.565Z,-3.11
2023-03-06T13:49:22.586Z,-3.11
2023-03-06T13:52:30.020Z,-2.97
2023-03-06T13:55:13.690Z,-2.96
2023-03-06T13:57:40.605Z,-3.02
2023-03-06T14:00:33.901Z,-3.04
2023-03-06T14:03:15.467Z,-3.07
2023-03-06T14:05:47.980Z,-3.08
2023-03-06T14:08:17.764Z,-3.11
2023-03-06T14:10:47.820Z,-3.10
2023-03-06T14:13:20.373Z,-3.18
2023-03-06T14:15:53.359Z,-3.15
2023-03-06T14:18:42.483Z,-3.20
2023-03-06T14:21:16.105Z,-3.49
2023-03-06T14:23:47.596Z,-3.69
2023-03-06T14:26:22.092Z,-3.57
2023-03-06T14:28:52.693Z,-3.51
2023-03-06T14:31:29.789Z,-3.54
2023-03-06T14:34:05.415Z,-3.76
2023-03-06T14:36:43.502Z,-3.57
2023-03-06T14:39:21.566Z,-3.60
2023-03-06T14:41:49.351Z,-3.60
2023-03-06T14:44:22.531Z,-3.73
2023-03-06T14:46:57.944Z,-3.67
2023-03-06T14:49:26.065Z,-3.61
2023-03-06T14:51:56.002Z,-3.67
2023-03-06T14:54:37.038Z,-3.76
2023-03-06T14:57:09.122Z,-3.80
2023-03-06T14:59:51.835Z,-3.87
2023-03-06T15:02:23.552Z,-3.85
2023-03-06T15:05:00.470Z,-3.89
2023-03-06T15:07:30.923Z,-3.94
2023-03-06T15:09:59.436Z,-3.99
2023-03-06T15:12:33.995Z,-3.98
2023-03-06T15:15:23.630Z,-3.98
2023-03-06T15:17:50.590Z,-4.05
2023-03-06T15:20:41.365Z,-4.09
2023-03-06T15:23:25.722Z,-4.12
2023-03-06T15:26:00.952Z,-4.18
2023-03-06T15:28:35.521Z,-4.23
2023-03-06T15:31:22.551Z,-4.24
2023-03-06T15:34:07.890Z,-4.24
2023-03-06T15:36:40.536Z,-4.29
2023-03-06T15:39:44.400Z,-4.29
2023-03-06T15:42:23.525Z,-4.33
2023-03-06T15:44:55.480Z,-4.33
2023-03-06T15:47:23.582Z,-4.42
2023-03-06T15:49:53.257Z,-4.57
2023-03-06T15:52:21.550Z,-4.40
2023-03-06T15:54:48.902Z,-4.39
2023-03-06T15:57:25.083Z,-4.48
2023-03-06T15:59:52.759Z,-4.39
2023-03-06T16:02:21.718Z,-4.40
2023-03-06T16:04:49.518Z,-4.40
2023-03-06T16:07:16.966Z,-4.40
2023-03-06T16:09:44.541Z,-4.41
2023-03-06T16:12:20.560Z,-4.39
2023-03-06T16:14:48.805Z,-4.46
2023-03-06T16:17:22.027Z,-4.45
2023-03-06T16:19:49.496Z,-4.42
2023-03-06T16:22:16.507Z,-4.48
2023-03-06T16:24:43.546Z,-4.47
2023-03-06T16:27:18.926Z,-4.43
2023-03-06T16:29:47.481Z,-4.41
2023-03-06T16:35:24.477Z,-4.40
2023-03-06T16:41:08.574Z,-4.67
2023-03-06T16:43:35.691Z,-4.38
2023-03-06T16:46:07.681Z,-4.30
2023-03-06T16:48:34.765Z,-4.27
2023-03-06T16:51:01.907Z,-4.24
2023-03-06T16:53:28.936Z,-4.18
2023-03-06T16:55:56.002Z,-4.18
2023-03-06T16:58:23.004Z,-4.22
2023-03-06T17:00:50.367Z,-4.29
2023-03-06T17:03:17.954Z,-4.19
2023-03-06T17:05:45.162Z,-4.13
2023-03-06T17:08:12.410Z,-4.26
2023-03-06T17:10:41.430Z,-4.13
2023-03-06T17:13:08.824Z,-4.15
2023-03-06T17:15:35.865Z,-4.13
2023-03-06T17:18:02.974Z,-4.12
2023-03-06T17:20:30.059Z,-4.20
2023-03-06T17:22:57.097Z,-4.33
2023-03-06T17:25:24.376Z,-4.20
2023-03-06T17:27:51.308Z,-4.26
2023-03-06T17:30:18.541Z,-4.23
2023-03-06T17:32:45.590Z,-4.24
2023-03-06T17:35:12.531Z,-4.28
2023-03-06T17:37:39.685Z,-4.32
2023-03-06T17:40:10.243Z,-4.27
2023-03-06T17:42:37.258Z,-4.29
2023-03-06T17:45:05.346Z,-4.25
2023-03-06T17:47:32.599Z,-4.25
2023-03-06T17:49:59.640Z,-4.21
2023-03-06T17:52:26.754Z,-4.24
2023-03-06T17:54:53.744Z,-4.22
2023-03-06T17:57:20.782Z,-4.22
2023-03-06T17:59:48.852Z,-4.20
2023-03-06T18:02:16.496Z,-4.35
2023-03-06T18:04:43.526Z,-4.26
2023-03-06T18:07:11.028Z,-4.34
2023-03-06T18:09:38.669Z,-4.27
2023-03-06T18:12:05.815Z,-4.31
2023-03-06T18:14:32.789Z,-4.33
2023-03-06T18:17:00.203Z,-4.50
2023-03-06T18:19:27.330Z,-4.36
2023-03-06T18:21:57.014Z,-4.50
2023-03-06T18:24:27.724Z,-4.46
2023-03-06T18:26:55.067Z,-4.50
2023-03-06T18:29:25.391Z,-4.70
2023-03-06T18:31:53.372Z,-4.59
2023-03-06T18:37:12.920Z,-4.73
2023-03-06T18:39:40.070Z,-4.83
2023-03-06T18:42:07.615Z,-4.92
2023-03-06T18:44:35.145Z,-4.82
2023-03-06T18:47:02.070Z,-4.88
2023-03-06T18:49:29.028Z,-4.84
2023-03-06T18:51:56.074Z,-4.99
2023-03-06T18:54:28.524Z,-5.08
2023-03-06T18:56:55.715Z,-5.02
2023-03-06T18:59:23.610Z,-5.25
2023-03-06T19:01:57.605Z,-5.28
2023-03-06T19:04:25.839Z,-5.25
2023-03-06T19:06:54.632Z,-5.29
2023-03-06T19:09:25.786Z,-5.33
2023-03-06T19:11:54.833Z,-5.64
2023-03-06T19:14:21.891Z,-5.44
2023-03-06T19:16:48.889Z,-5.40
2023-03-06T19:19:41.154Z,-5.43
2023-03-06T19:22:08.114Z,-5.52
2023-03-06T19:24:35.109Z,-5.53
2023-03-06T19:27:02.125Z,-5.58
2023-03-06T19:29:29.066Z,-5.63
2023-03-06T19:31:57.287Z,-5.75
2023-03-06T19:34:24.592Z,-5.68
2023-03-06T19:36:51.525Z,-5.70
2023-03-06T19:39:18.556Z,-5.72
2023-03-06T19:41:47.401Z,-5.82
2023-03-06T19:44:16.381Z,-5.74
2023-03-06T19:46:43.708Z,-5.81
2023-03-06T19:49:17.025Z,-5.79
2023-03-06T19:51:44.580Z,-5.80
2023-03-06T19:54:12.749Z,-5.84
2023-03-06T19:56:40.265Z,-5.87
2023-03-06T19:59:07.329Z,-5.85
2023-03-06T20:01:34.500Z,-6.02
2023-03-06T20:04:01.776Z,-5.89
2023-03-06T20:06:33.728Z,-6.02
2023-03-06T20:09:02.528Z,-6.00
2023-03-06T20:11:30.142Z,-6.01
2023-03-06T20:14:02.927Z,-6.01
2023-03-06T20:16:31.319Z,-6.04
2023-03-06T20:19:00.418Z,-6.00
2023-03-06T20:21:30.236Z,-6.02
2023-03-06T20:23:58.365Z,-6.00
2023-03-06T20:26:28.943Z,-5.99
2023-03-06T20:28:56.892Z,-6.00
2023-03-06T20:31:26.214Z,-6.10
2023-03-06T20:33:55.241Z,-5.99
2023-03-06T20:36:25.335Z,-5.99
2023-03-06T20:38:52.287Z,-6.07
2023-03-06T20:41:23.363Z,-5.95
2023-03-06T20:43:51.323Z,-6.00
2023-03-06T20:46:19.281Z,-5.96
2023-03-06T20:48:49.548Z,-5.96
2023-03-06T20:51:17.913Z,-5.97
2023-03-06T20:53:45.860Z,-6.00
2023-03-06T20:56:14.766Z,-5.95
2023-03-06T20:58:41.692Z,-6.04
2023-03-06T21:01:08.711Z,-5.93
2023-03-06T21:03:35.723Z,-5.95
2023-03-06T21:06:02.776Z,-5.98
2023-03-06T21:08:31.493Z,-5.99
2023-03-06T21:10:58.461Z,-5.96
2023-03-06T21:13:25.384Z,-6.16
2023-03-06T21:15:52.625Z,-6.15
2023-03-06T21:18:19.521Z,-5.98
2023-03-06T21:20:46.395Z,-5.96
2023-03-06T21:23:13.401Z,-5.96
2023-03-06T21:25:51.482Z,-6.00
2023-03-06T21:28:19.116Z,-5.95
2023-03-06T21:30:46.672Z,-5.96
2023-03-06T21:33:14.001Z,-5.95
2023-03-06T21:35:42.099Z,-5.96
2023-03-06T21:38:09.781Z,-6.02
2023-03-06T21:40:37.530Z,-5.94
2023-03-06T21:43:04.942Z,-6.22
2023-03-06T21:45:32.507Z,-5.91
2023-03-06T21:48:00.296Z,-6.00
2023-03-06T21:50:28.110Z,-6.02
2023-03-06T21:52:56.630Z,-6.07
2023-03-06T21:55:23.665Z,-6.00
2023-03-06T21:57:53.086Z,-5.94
2023-03-06T22:00:23.213Z,-5.83
2023-03-06T22:02:50.265Z,-5.78
2023-03-06T22:05:17.244Z,-5.78
2023-03-06T22:07:44.577Z,-5.78
2023-03-06T22:10:14.421Z,-5.80
2023-03-06T22:12:42.218Z,-5.77
2023-03-06T22:15:09.852Z,-5.74
2023-03-06T22:17:36.912Z,-5.78
2023-03-06T22:20:04.511Z,-5.74
2023-03-06T22:22:31.694Z,-5.81
2023-03-06T22:24:58.706Z,-5.74
2023-03-06T22:27:25.729Z,-5.74
2023-03-06T22:29:53.311Z,-5.73
2023-03-06T22:32:20.647Z,-5.69
2023-03-06T22:34:47.675Z,-5.72
2023-03-06T22:37:14.556Z,-5.67
2023-03-06T22:39:41.490Z,-5.78
2023-03-06T22:42:08.372Z,-5.78
2023-03-06T22:44:35.521Z,-5.62
2023-03-06T22:47:02.479Z,-5.64
2023-03-06T22:49:29.471Z,-5.59
2023-03-06T22:51:56.462Z,-5.64
2023-03-06T22:54:23.399Z,-5.64
2023-03-06T22:56:50.316Z,-5.57
2023-03-06T22:59:17.376Z,-5.73
2023-03-06T23:01:44.352Z,-5.53
2023-03-06T23:04:11.501Z,-5.62
2023-03-06T23:06:40.908Z,-5.50
2023-03-06T23:09:14.803Z,-5.46
2023-03-06T23:12:00.241Z,-5.44
2023-03-06T23:14:49.768Z,-5.41
2023-03-06T23:17:36.442Z,-5.51
2023-03-06T23:20:22.498Z,-5.47
2023-03-06T23:23:08.252Z,-5.43
2023-03-06T23:25:41.618Z,-5.54
2023-03-06T23:28:08.598Z,-5.45
2023-03-06T23:30:38.020Z,-5.45
2023-03-06T23:33:05.278Z,-5.51
2023-03-06T23:35:33.689Z,-5.42
2023-03-06T23:38:02.476Z,-5.47
2023-03-06T23:40:31.592Z,-5.40
2023-03-06T23:42:58.446Z,-5.38
2023-03-06T23:45:25.487Z,-5.42
2023-03-06T23:47:52.510Z,-5.56
2023-03-06T23:50:19.719Z,-5.43
2023-03-06T23:52:46.705Z,-5.35
2023-03-06T23:55:14.147Z,-5.40
2023-03-06T23:57:41.123Z,-5.36
